createdAt,value
2023-02-07T00:01:26.137Z,2.05
2023-02-07T00:03:55.245Z,1.63
2023-02-07T00:06:31.847Z,2.30
2023-02-07T00:09:03.008Z,1.33
2023-02-07T00:11:30.864Z,1.05
2023-02-07T00:13:59.711Z,1.20
2023-02-07T00:16:28.344Z,1.52
2023-02-07T00:18:59.066Z,1.58
2023-02-07T00:21:27.986Z,1.45
2023-02-07T00:23:55.654Z,1.25
2023-02-07T00:26:25.809Z,1.60
2023-02-07T00:28:55.798Z,1.20
2023-02-07T00:31:30.116Z,1.25
2023-02-07T00:34:01.792Z,1.38
2023-02-07T00:36:33.405Z,1.38
2023-02-07T00:39:05.364Z,1.30
2023-02-07T00:41:33.710Z,1.27
2023-02-07T00:44:01.369Z,1.25
2023-02-07T00:46:29.764Z,1.30
2023-02-07T00:48:57.735Z,0.93
2023-02-07T00:51:28.155Z,1.23
2023-02-07T00:53:57.061Z,1.50
2023-02-07T00:56:27.382Z,0.88
2023-02-07T00:58:55.385Z,1.00
2023-02-07T01:01:24.778Z,1.08
2023-02-07T01:03:52.591Z,1.00
2023-02-07T01:06:20.614Z,1.38
2023-02-07T01:08:48.295Z,1.52
2023-02-07T01:11:18.101Z,1.50
2023-02-07T01:13:45.914Z,1.20
2023-02-07T01:16:27.520Z,1.35
2023-02-07T01:18:55.685Z,1.20
2023-02-07T01:21:25.261Z,1.00
2023-02-07T01:23:56.695Z,1.30
2023-02-07T01:26:25.505Z,1.67
2023-02-07T01:28:55.152Z,1.23
2023-02-07T01:31:23.597Z,1.38
2023-02-07T01:33:56.201Z,1.20
2023-02-07T01:36:25.834Z,0.63
2023-02-07T01:38:54.717Z,0.85
2023-02-07T01:41:24.026Z,1.00
2023-02-07T01:44:04.950Z,1.02
2023-02-07T01:46:34.654Z,0.90
2023-02-07T01:49:10.036Z,1.15
2023-02-07T01:51:39.001Z,0.88
2023-02-07T01:54:10.030Z,1.00
2023-02-07T01:56:42.970Z,1.13
2023-02-07T01:59:10.834Z,1.30
2023-02-07T02:01:42.184Z,1.10
2023-02-07T02:04:09.837Z,1.00
2023-02-07T02:06:39.192Z,1.00
2023-02-07T02:09:12.431Z,1.40
2023-02-07T02:11:48.879Z,1.50
2023-02-07T02:14:16.832Z,0.80
2023-02-07T02:17:05.788Z,1.02
2023-02-07T02:19:51.999Z,0.77
2023-02-07T02:22:34.833Z,2.05
2023-02-07T02:25:24.133Z,0.82
2023-02-07T02:28:03.620Z,0.95
2023-02-07T02:30:46.444Z,0.63
2023-02-07T02:33:50.910Z,0.60
2023-02-07T02:36:36.457Z,0.80
2023-02-07T02:39:23.374Z,0.75
2023-02-07T02:42:09.568Z,0.93
2023-02-07T02:44:47.249Z,0.80
2023-02-07T02:47:15.880Z,0.85
2023-02-07T02:49:44.783Z,1.05
2023-02-07T02:52:12.388Z,0.88
2023-02-07T02:54:41.916Z,0.80
2023-02-07T02:58:12.841Z,0.98
2023-02-07T03:00:43.076Z,1.33
2023-02-07T03:03:42.031Z,0.82
2023-02-07T03:06:33.567Z,1.15
2023-02-07T03:09:19.482Z,0.60
2023-02-07T03:12:03.398Z,0.85
2023-02-07T03:14:59.838Z,0.82
2023-02-07T03:17:53.730Z,0.80
2023-02-07T03:20:37.355Z,0.75
2023-02-07T03:23:09.123Z,0.50
2023-02-07T03:25:39.318Z,0.60
2023-02-07T03:28:09.853Z,0.73
2023-02-07T03:30:39.387Z,0.70
2023-02-07T03:33:13.347Z,1.63
2023-02-07T03:36:08.685Z,1.08
2023-02-07T03:38:37.278Z,0.43
2023-02-07T03:41:17.081Z,1.58
2023-02-07T03:43:45.012Z,1.25
2023-02-07T03:46:12.837Z,1.10
2023-02-07T03:48:40.122Z,0.95
2023-02-07T03:51:07.686Z,1.02
2023-02-07T03:53:34.991Z,1.00
2023-02-07T03:56:02.576Z,0.85
2023-02-07T03:58:29.855Z,1.08
2023-02-07T04:00:57.608Z,0.90
2023-02-07T04:03:25.009Z,1.05
2023-02-07T04:05:52.773Z,1.05
2023-02-07T04:08:20.088Z,1.23
2023-02-07T04:10:57.589Z,1.05
2023-02-07T04:13:24.947Z,0.63
2023-02-07T04:15:52.705Z,1.30
2023-02-07T04:18:20.448Z,0.88
2023-02-07T04:20:48.344Z,2.20
2023-02-07T04:23:15.598Z,1.17
2023-02-07T04:25:43.188Z,1.60
2023-02-07T04:28:10.488Z,1.38
2023-02-07T04:30:38.060Z,1.20
2023-02-07T04:33:05.581Z,1.42
2023-02-07T04:35:33.087Z,1.35
2023-02-07T04:38:00.356Z,1.50
2023-02-07T04:40:27.913Z,1.35
2023-02-07T04:42:55.150Z,1.90
2023-02-07T04:45:22.808Z,5.78
2023-02-07T04:47:50.446Z,1.55
2023-02-07T04:50:18.830Z,1.73
2023-02-07T04:52:46.065Z,1.60
2023-02-07T04:55:13.707Z,1.98
2023-02-07T04:57:40.961Z,2.22
2023-02-07T05:00:09.320Z,2.50
2023-02-07T05:02:36.629Z,1.70
2023-02-07T05:05:04.268Z,2.03
2023-02-07T05:07:31.570Z,1.95
2023-02-07T05:09:59.204Z,2.13
2023-02-07T05:12:26.514Z,7.90
2023-02-07T05:14:54.050Z,3.15
2023-02-07T05:17:21.350Z,2.70
2023-02-07T05:19:48.904Z,2.13
2023-02-07T05:22:16.146Z,2.50
2023-02-07T05:24:44.017Z,2.58
2023-02-07T05:27:11.300Z,2.47
2023-02-07T05:29:38.835Z,2.40
2023-02-07T05:32:24.496Z,2.35
2023-02-07T05:34:51.994Z,2.30
2023-02-07T05:37:19.236Z,2.70
2023-02-07T05:39:46.801Z,3.35
2023-02-07T05:42:14.039Z,2.90
2023-02-07T05:44:41.740Z,2.58
2023-02-07T05:47:09.019Z,2.85
2023-02-07T05:49:37.544Z,2.70
2023-02-07T05:52:05.319Z,2.33
2023-02-07T05:54:32.848Z,2.38
2023-02-07T05:57:00.259Z,2.55
2023-02-07T05:59:27.821Z,2.50
2023-02-07T06:01:55.119Z,2.60
2023-02-07T06:04:22.707Z,2.08
2023-02-07T06:06:49.986Z,2.20
2023-02-07T06:09:17.584Z,2.60
2023-02-07T06:11:44.919Z,2.15
2023-02-07T06:14:12.479Z,2.45
2023-02-07T06:16:39.738Z,2.00
2023-02-07T06:19:09.907Z,2.50
2023-02-07T06:21:46.139Z,2.13
2023-02-07T06:24:16.037Z,2.25
2023-02-07T06:26:44.428Z,2.30
2023-02-07T06:29:12.366Z,2.63
2023-02-07T06:31:39.700Z,2.55
2023-02-07T06:34:07.747Z,2.38
2023-02-07T06:36:35.076Z,2.58
2023-02-07T06:39:03.603Z,2.78
2023-02-07T06:41:30.880Z,2.63
2023-02-07T06:43:58.484Z,3.80
2023-02-07T06:46:26.241Z,2.50
2023-02-07T06:48:53.817Z,2.85
2023-02-07T06:51:21.156Z,2.72
2023-02-07T06:53:48.845Z,2.70
2023-02-07T06:56:18.508Z,2.78
2023-02-07T06:58:46.346Z,2.83
2023-02-07T07:01:20.033Z,2.78
2023-02-07T07:03:47.952Z,2.72
2023-02-07T07:06:15.290Z,2.45
2023-02-07T07:08:42.888Z,3.13
2023-02-07T07:11:10.174Z,2.47
2023-02-07T07:13:37.853Z,2.65
2023-02-07T07:16:05.485Z,2.85
2023-02-07T07:18:33.073Z,2.97
2023-02-07T07:21:00.385Z,2.50
2023-02-07T07:23:27.937Z,2.30
2023-02-07T07:25:55.201Z,3.17
2023-02-07T07:28:22.776Z,2.85
2023-02-07T07:30:50.150Z,2.80
2023-02-07T07:33:17.848Z,2.88
2023-02-07T07:35:45.165Z,3.17
2023-02-07T07:38:12.915Z,3.15
2023-02-07T07:40:40.444Z,3.00
2023-02-07T07:43:08.167Z,2.95
2023-02-07T07:45:47.020Z,2.90
2023-02-07T07:48:14.666Z,2.60
2023-02-07T07:50:42.549Z,2.83
2023-02-07T07:53:10.262Z,3.55
2023-02-07T07:55:38.462Z,3.35
2023-02-07T07:58:06.032Z,3.30
2023-02-07T08:00:33.526Z,3.53
2023-02-07T08:03:01.109Z,3.38
2023-02-07T08:05:28.535Z,3.72
2023-02-07T08:07:56.185Z,3.55
2023-02-07T08:10:23.432Z,3.35
2023-02-07T08:12:50.994Z,4.00
2023-02-07T08:15:18.532Z,3.45
2023-02-07T08:17:46.155Z,3.60
2023-02-07T08:20:13.531Z,3.97
2023-02-07T08:22:41.142Z,4.50
2023-02-07T08:25:09.006Z,3.55
2023-02-07T08:27:37.226Z,3.53
2023-02-07T08:30:07.188Z,3.67
2023-02-07T08:32:35.059Z,3.47
2023-02-07T08:35:02.358Z,3.28
2023-02-07T08:37:30.048Z,3.00
2023-02-07T08:39:58.180Z,3.90
2023-02-07T08:42:25.818Z,2.65
2023-02-07T08:44:53.116Z,3.63
2023-02-07T08:47:20.662Z,3.33
2023-02-07T08:49:48.208Z,2.50
2023-02-07T08:52:15.769Z,2.63
2023-02-07T08:54:43.025Z,2.40
2023-02-07T08:57:10.669Z,2.60
2023-02-07T08:59:37.999Z,2.35
2023-02-07T09:02:05.882Z,2.25
2023-02-07T09:04:33.250Z,2.33
2023-02-07T09:07:00.784Z,2.30
2023-02-07T09:09:28.058Z,2.35
2023-02-07T09:11:55.599Z,2.45
2023-02-07T09:14:23.007Z,2.75
2023-02-07T09:16:50.671Z,2.17
2023-02-07T09:19:18.330Z,2.20
2023-02-07T09:21:45.896Z,2.45
2023-02-07T09:24:13.160Z,2.47
2023-02-07T09:26:40.810Z,1.98
2023-02-07T09:29:10.294Z,2.60
2023-02-07T09:31:38.038Z,1.75
2023-02-07T09:34:05.472Z,1.88
2023-02-07T09:36:33.803Z,1.95
2023-02-07T09:39:01.912Z,2.55
2023-02-07T09:41:59.932Z,2.63
2023-02-07T09:44:46.445Z,2.10
2023-02-07T09:47:21.835Z,2.08
2023-02-07T09:50:11.040Z,2.47
2023-02-07T09:52:53.511Z,2.08
2023-02-07T09:55:38.029Z,2.30
2023-02-07T09:58:14.776Z,2.33
2023-02-07T10:00:43.491Z,2.20
2023-02-07T10:03:19.141Z,3.42
2023-02-07T10:05:55.043Z,3.20
2023-02-07T10:08:26.421Z,3.55
2023-02-07T10:11:30.229Z,2.95
2023-02-07T10:14:22.009Z,3.13
2023-02-07T10:17:16.493Z,3.20
2023-02-07T10:20:23.784Z,3.70
2023-02-07T10:22:57.726Z,5.00
2023-02-07T10:25:49.816Z,3.13
2023-02-07T10:28:17.444Z,2.55
2023-02-07T10:30:52.590Z,2.78
2023-02-07T10:33:24.282Z,2.75
2023-02-07T10:35:53.646Z,3.20
2023-02-07T10:38:28.093Z,2.55
2023-02-07T10:40:57.710Z,2.65
2023-02-07T10:43:30.571Z,7.97
2023-02-07T10:46:10.200Z,3.80
2023-02-07T10:48:38.551Z,2.70
2023-02-07T10:51:26.678Z,2.58
2023-02-07T10:54:12.588Z,3.22
2023-02-07T10:56:57.780Z,2.10
2023-02-07T10:59:31.508Z,2.17
2023-02-07T11:01:59.637Z,2.47
2023-02-07T11:04:36.781Z,2.50
2023-02-07T11:07:07.692Z,2.25
2023-02-07T11:09:38.031Z,3.30
2023-02-07T11:12:15.523Z,2.10
2023-02-07T11:15:03.582Z,2.65
2023-02-07T11:17:34.668Z,2.83
2023-02-07T11:20:07.082Z,2.80
2023-02-07T11:22:35.037Z,2.60
2023-02-07T11:25:05.672Z,2.40
2023-02-07T11:27:39.709Z,2.08
2023-02-07T11:30:18.953Z,2.60
2023-02-07T11:32:59.429Z,2.95
2023-02-07T11:35:27.007Z,2.65
2023-02-07T11:38:04.845Z,2.50
2023-02-07T11:40:48.424Z,2.47
2023-02-07T11:43:18.462Z,1.90
2023-02-07T11:46:01.527Z,2.22
2023-02-07T11:48:34.008Z,2.70
2023-02-07T11:51:03.960Z,3.40
2023-02-07T11:53:49.932Z,3.30
2023-02-07T11:56:23.473Z,3.20
2023-02-07T11:58:53.078Z,4.05
2023-02-07T12:01:28.740Z,4.50
2023-02-07T12:04:01.125Z,3.10
2023-02-07T12:06:35.198Z,3.97
2023-02-07T12:09:05.370Z,3.72
2023-02-07T12:11:38.504Z,4.03
2023-02-07T12:14:33.078Z,3.90
2023-02-07T12:17:03.915Z,3.63
2023-02-07T12:19:35.248Z,3.88
2023-02-07T12:22:19.194Z,2.33
2023-02-07T12:25:11.131Z,3.30
2023-02-07T12:27:43.204Z,2.50
2023-02-07T12:30:36.288Z,3.30
2023-02-07T12:33:34.294Z,3.10
2023-02-07T12:36:37.556Z,3.42
2023-02-07T12:39:15.119Z,3.42
2023-02-07T12:41:57.487Z,3.40
2023-02-07T12:47:29.138Z,3.60
2023-02-07T12:50:14.398Z,3.58
2023-02-07T12:52:54.226Z,3.60
2023-02-07T12:56:11.251Z,3.25
2023-02-07T12:59:23.561Z,3.65
2023-02-07T13:01:53.771Z,3.30
2023-02-07T13:04:36.590Z,4.00
2023-02-07T13:07:30.371Z,3.45
2023-02-07T13:10:18.271Z,3.45
2023-02-07T13:13:11.998Z,3.75
2023-02-07T13:16:06.717Z,2.78
2023-02-07T13:18:33.888Z,3.45
2023-02-07T13:21:07.328Z,3.42
2023-02-07T13:23:40.182Z,4.15
2023-02-07T13:26:16.786Z,4.22
2023-02-07T13:28:56.281Z,3.17
2023-02-07T13:32:02.629Z,4.05
2023-02-07T13:34:37.326Z,3.42
2023-02-07T13:37:16.446Z,3.92
2023-02-07T13:40:03.222Z,3.63
2023-02-07T13:42:46.286Z,3.42
2023-02-07T13:45:13.662Z,3.72
2023-02-07T13:47:56.237Z,4.40
2023-02-07T13:50:38.889Z,4.20
2023-02-07T13:53:06.729Z,5.00
2023-02-07T13:55:38.287Z,5.28
2023-02-07T13:58:53.791Z,4.80
2023-02-07T14:01:27.814Z,5.32
2023-02-07T14:04:09.575Z,6.30
2023-02-07T14:07:01.998Z,3.67
2023-02-07T14:09:39.452Z,5.57
2023-02-07T14:12:21.090Z,5.47
2023-02-07T14:15:01.771Z,5.15
2023-02-07T14:17:30.440Z,4.95
2023-02-07T14:19:58.928Z,5.22
2023-02-07T14:22:52.476Z,5.75
2023-02-07T14:25:31.855Z,5.35
2023-02-07T14:28:05.274Z,5.28
2023-02-07T14:30:37.265Z,5.40
2023-02-07T14:33:14.211Z,4.63
2023-02-07T14:36:04.279Z,4.82
2023-02-07T14:38:41.180Z,4.82
2023-02-07T14:41:17.568Z,4.00
2023-02-07T14:43:56.846Z,4.60
2023-02-07T14:46:39.370Z,4.95
2023-02-07T14:49:23.737Z,4.57
2023-02-07T14:51:55.504Z,4.93
2023-02-07T14:54:36.522Z,5.20
2023-02-07T14:57:17.518Z,4.10
2023-02-07T14:59:59.071Z,6.40
2023-02-07T15:02:41.538Z,6.78
2023-02-07T15:05:28.451Z,6.25
2023-02-07T15:08:02.129Z,6.80
2023-02-07T15:10:36.792Z,7.13
2023-02-07T15:13:15.269Z,7.15
2023-02-07T15:15:52.553Z,7.38
2023-02-07T15:18:23.123Z,8.20
2023-02-07T15:21:00.528Z,8.48
2023-02-07T15:23:31.007Z,8.13
2023-02-07T15:26:05.944Z,9.98
2023-02-07T15:28:33.983Z,9.95
2023-02-07T15:31:14.207Z,9.90
2023-02-07T15:33:53.693Z,10.63
2023-02-07T15:36:35.016Z,10.52
2023-02-07T15:39:13.540Z,10.23
2023-02-07T15:41:41.039Z,10.65
2023-02-07T15:44:18.592Z,10.70
2023-02-07T15:46:54.820Z,10.18
2023-02-07T15:49:32.979Z,10.73
2023-02-07T15:52:34.562Z,10.55
2023-02-07T15:55:34.662Z,11.05
2023-02-07T15:58:04.016Z,9.50
2023-02-07T16:00:38.072Z,11.32
2023-02-07T16:03:08.396Z,10.65
2023-02-07T16:05:38.108Z,10.57
2023-02-07T16:08:27.131Z,10.52
2023-02-07T16:10:54.945Z,10.95
2023-02-07T16:13:23.144Z,10.75
2023-02-07T16:16:09.512Z,10.57
2023-02-07T16:18:46.635Z,10.70
2023-02-07T16:21:22.903Z,10.90
2023-02-07T16:24:04.809Z,10.25
2023-02-07T16:26:32.823Z,10.23
2023-02-07T16:29:00.301Z,11.20
2023-02-07T16:31:28.261Z,9.77
2023-02-07T16:33:55.556Z,10.60
2023-02-07T16:36:23.128Z,10.85
2023-02-07T16:38:50.639Z,11.10
2023-02-07T16:41:32.445Z,10.13
2023-02-07T16:44:01.302Z,7.95
2023-02-07T16:46:29.964Z,9.90
2023-02-07T16:48:57.803Z,11.13
2023-02-07T16:51:25.377Z,10.65
2023-02-07T16:53:52.644Z,10.85
2023-02-07T16:56:27.880Z,10.98
2023-02-07T16:58:55.379Z,10.30
2023-02-07T17:01:23.147Z,11.32
2023-02-07T17:03:50.846Z,10.95
2023-02-07T17:06:21.089Z,11.10
2023-02-07T17:08:49.991Z,11.55
2023-02-07T17:11:24.925Z,11.30
2023-02-07T17:13:56.902Z,10.95
2023-02-07T17:16:26.875Z,10.88
2023-02-07T17:18:54.290Z,11.43
2023-02-07T17:21:23.821Z,12.02
2023-02-07T17:23:51.381Z,10.85
2023-02-07T17:26:26.236Z,12.82
2023-02-07T17:28:55.080Z,11.85
2023-02-07T17:31:23.377Z,12.77
2023-02-07T17:33:51.741Z,13.77
2023-02-07T17:36:20.045Z,14.85
2023-02-07T17:38:47.340Z,18.13
2023-02-07T17:41:15.563Z,12.90
2023-02-07T17:43:42.869Z,14.07
2023-02-07T17:46:23.055Z,13.57
2023-02-07T17:48:51.437Z,13.23
2023-02-07T17:51:22.322Z,13.65
2023-02-07T17:53:50.014Z,12.90
2023-02-07T17:56:23.047Z,11.30
2023-02-07T17:58:51.383Z,11.07
2023-02-07T18:01:19.528Z,11.25
2023-02-07T18:03:48.024Z,10.98
2023-02-07T18:06:21.160Z,11.95
2023-02-07T18:08:48.632Z,11.15
2023-02-07T18:11:16.501Z,10.25
2023-02-07T18:13:47.083Z,10.95
2023-02-07T18:16:17.504Z,10.02
2023-02-07T18:18:45.028Z,8.90
2023-02-07T18:21:13.662Z,8.10
2023-02-07T18:23:43.143Z,7.40
2023-02-07T18:26:14.552Z,7.03
2023-02-07T18:28:43.809Z,6.20
2023-02-07T18:31:16.848Z,7.18
2023-02-07T18:33:44.784Z,7.00
2023-02-07T18:36:12.407Z,6.43
2023-02-07T18:38:40.244Z,6.07
2023-02-07T18:41:11.388Z,6.97
2023-02-07T18:43:40.535Z,6.40
2023-02-07T18:46:15.038Z,5.97
2023-02-07T18:48:45.064Z,5.65
2023-02-07T18:51:15.456Z,6.20
2023-02-07T18:53:43.534Z,5.38
2023-02-07T18:56:19.941Z,5.60
2023-02-07T18:58:47.752Z,5.57
2023-02-07T19:01:21.164Z,5.93
2023-02-07T19:03:54.442Z,6.38
2023-02-07T19:06:24.136Z,6.43
2023-02-07T19:08:51.652Z,6.18
2023-02-07T19:11:19.885Z,6.47
2023-02-07T19:13:47.808Z,6.32
2023-02-07T19:16:19.128Z,6.32
2023-02-07T19:18:48.089Z,4.73
2023-02-07T19:21:23.805Z,5.95
2023-02-07T19:23:51.371Z,5.82
2023-02-07T19:26:20.006Z,6.40
2023-02-07T19:28:47.342Z,5.85
2023-02-07T19:31:18.172Z,6.15
2023-02-07T19:33:50.649Z,6.43
2023-02-07T19:36:19.290Z,6.90
2023-02-07T19:38:48.797Z,6.53
2023-02-07T19:41:19.195Z,7.10
2023-02-07T19:43:47.248Z,6.50
2023-02-07T19:46:15.420Z,6.47
2023-02-07T19:48:43.638Z,6.57
2023-02-07T19:51:15.381Z,6.32
2023-02-07T19:53:45.148Z,6.63
2023-02-07T19:56:14.139Z,6.53
2023-02-07T19:58:45.031Z,7.00
2023-02-07T20:01:13.345Z,5.63
2023-02-07T20:03:41.641Z,6.45
2023-02-07T20:06:12.286Z,7.22
2023-02-07T20:08:41.001Z,6.90
2023-02-07T20:11:13.807Z,6.57
2023-02-07T20:13:43.573Z,7.15
2023-02-07T20:16:14.381Z,7.43
2023-02-07T20:18:42.306Z,7.25
2023-02-07T20:21:14.334Z,7.72
2023-02-07T20:23:47.044Z,8.20
2023-02-07T20:26:19.112Z,7.65
2023-02-07T20:28:47.055Z,8.23
2023-02-07T20:31:17.460Z,8.73
2023-02-07T20:33:45.730Z,8.60
2023-02-07T20:36:15.197Z,7.68
2023-02-07T20:38:44.914Z,8.68
2023-02-07T20:41:29.274Z,7.90
2023-02-07T20:44:05.050Z,8.80
2023-02-07T20:46:35.128Z,7.70
2023-02-07T20:49:08.322Z,8.07
2023-02-07T20:51:36.231Z,8.32
2023-02-07T20:54:05.544Z,8.25
2023-02-07T20:56:33.899Z,8.05
2023-02-07T20:59:01.614Z,8.73
2023-02-07T21:01:31.982Z,8.77
2023-02-07T21:04:02.144Z,9.32
2023-02-07T21:06:31.142Z,9.30
2023-02-07T21:09:02.847Z,9.05
2023-02-07T21:11:39.550Z,8.68
2023-02-07T21:14:19.624Z,8.07
2023-02-07T21:16:47.351Z,9.38
2023-02-07T21:19:15.188Z,9.10
2023-02-07T21:21:43.131Z,9.52
2023-02-07T21:24:10.595Z,9.02
2023-02-07T21:26:38.207Z,9.30
2023-02-07T21:29:06.985Z,10.10
2023-02-07T21:31:36.226Z,9.32
2023-02-07T21:34:05.363Z,9.52
2023-02-07T21:36:38.088Z,8.88
2023-02-07T21:39:10.413Z,9.20
2023-02-07T21:41:41.645Z,9.10
2023-02-07T21:44:09.980Z,10.23
2023-02-07T21:46:39.759Z,10.48
2023-02-07T21:49:11.068Z,8.60
2023-02-07T21:51:38.609Z,9.63
2023-02-07T21:54:07.534Z,10.00
2023-02-07T21:56:38.561Z,9.50
2023-02-07T21:59:08.601Z,9.18
2023-02-07T22:01:36.790Z,8.98
2023-02-07T22:04:06.138Z,9.50
2023-02-07T22:06:33.754Z,10.77
2023-02-07T22:09:02.735Z,10.95
2023-02-07T22:11:33.531Z,10.68
2023-02-07T22:14:01.992Z,11.52
2023-02-07T22:16:31.056Z,11.77
2023-02-07T22:18:59.878Z,11.50
2023-02-07T22:21:33.348Z,10.32
2023-02-07T22:24:01.989Z,11.05
2023-02-07T22:26:30.686Z,10.48
2023-02-07T22:29:01.844Z,11.70
2023-02-07T22:31:31.729Z,10.60
2023-02-07T22:34:02.251Z,11.02
2023-02-07T22:36:33.491Z,11.00
2023-02-07T22:39:02.797Z,10.47
2023-02-07T22:41:30.774Z,10.35
2023-02-07T22:43:58.503Z,9.95
2023-02-07T22:46:26.166Z,10.10
2023-02-07T22:48:54.242Z,10.00
2023-02-07T22:51:26.543Z,9.27
2023-02-07T22:56:26.682Z,9.25
2023-02-07T22:58:54.958Z,10.70
2023-02-07T23:01:31.755Z,10.35
2023-02-07T23:03:59.165Z,9.70
2023-02-07T23:06:27.003Z,9.98
2023-02-07T23:08:54.875Z,9.57
2023-02-07T23:11:23.656Z,9.13
2023-02-07T23:13:52.315Z,8.85
2023-02-07T23:16:23.190Z,9.55
2023-02-07T23:18:52.691Z,9.65
2023-02-07T23:21:22.151Z,8.70
2023-02-07T23:23:49.990Z,9.90
2023-02-07T23:26:20.376Z,9.30
2023-02-07T23:28:48.292Z,9.40
2023-02-07T23:31:17.635Z,9.40
2023-02-07T23:33:45.053Z,9.73
2023-02-07T23:36:13.224Z,9.82
2023-02-07T23:38:40.564Z,10.15
2023-02-07T23:41:08.524Z,9.73
2023-02-07T23:43:37.409Z,10.10
2023-02-07T23:46:06.590Z,10.20
2023-02-07T23:48:37.742Z,9.88
2023-02-07T23:51:07.002Z,10.43
2023-02-07T23:53:34.784Z,9.35
2023-02-07T23:56:04.219Z,9.73
2023-02-07T23:58:32.106Z,9.27
